Terminal Aerodrome Forecast
Issued by NWS

Home | Current Version | Previous Version | Text Only | Print | Product List | Glossary On
Versions: 1 2 3 4 5 6 7 8 9 10 11 12 13 14 15 16 17 18 19 20 21 22 23
000
FTUS42 KJAX 311100
TAFVQQ
TAF
KVQQ 311120Z 3112/0112 00000KT 4SM BR SCT010 SCT250
     FM311300 15005KT P6SM SCT070
     FM312100 12008KT P6SM VCSH SCT030 BKN070
     FM010100 13003KT P6SM FEW030 SCT070 SCT250=

USA.gov is the U.S. government's official web portal to all federal, state and local government web resources and services.